Time;durP1;ratioP1;P1;durP2;ratioP2;P2;SDS_P1;SDS_P2;PMS_P1;PMS_P2;Temp;Humidity;BMP_temperature;BMP_pressure;BME280_temperature;BME280_humidity;BME280_pressure;Samples;Min_cycle;Max_cycle;Signal;HPM_P1;HPM_P2
2022/08/11 00:01:20;;;;;;;5.35;4.05;;;17.50;99.90;;;;;;5136786;27;20050;-80
2022/08/11 00:03:52;;;;;;;3.97;3.20;;;17.50;99.90;;;;;;5155182;27;20051;-84
2022/08/11 00:06:30;;;;;;;5.32;3.17;;;17.40;99.90;;;;;;5136438;27;20125;-82
2022/08/11 00:08:57;;;;;;;5.80;4.28;;;17.40;99.90;;;;;;5154545;27;20053;-81
2022/08/11 00:11:53;;;;;;;4.97;4.40;;;17.30;99.90;;;;;;5154907;27;20082;-81
2022/08/11 00:14:32;;;;;;;6.90;3.88;;;17.30;99.90;;;;;;5155041;27;20501;-88
2022/08/11 00:17:11;;;;;;;7.00;4.65;;;17.30;99.90;;;;;;5154853;27;20399;-81
2022/08/11 00:19:42;;;;;;;6.57;4.45;;;17.20;99.90;;;;;;5154624;27;20053;-80
2022/08/11 00:22:09;;;;;;;4.38;3.97;;;17.20;99.90;;;;;;5154405;27;20046;-83
2022/08/11 00:24:39;;;;;;;6.25;4.40;;;17.10;99.90;;;;;;5136215;27;20055;-81
2022/08/11 00:27:06;;;;;;;5.32;3.88;;;17.10;99.90;;;;;;5154670;27;20053;-81
2022/08/11 00:29:33;;;;;;;7.40;4.55;;;17.00;99.90;;;;;;5154590;27;20121;-83
2022/08/11 00:32:02;;;;;;;4.72;4.10;;;17.00;99.90;;;;;;5136209;27;20050;-81
2022/08/11 00:34:32;;;;;;;9.35;4.38;;;17.00;99.90;;;;;;5154486;27;20083;-82
2022/08/11 00:37:10;;;;;;;6.85;4.90;;;17.00;99.90;;;;;;5136008;27;20050;-81
2022/08/11 00:39:44;;;;;;;6.90;3.92;;;17.00;99.90;;;;;;5136024;27;20440;-82
2022/08/11 00:42:27;;;;;;;7.43;4.85;;;16.90;99.90;;;;;;5136336;27;20054;-81
2022/08/11 00:45:01;;;;;;;6.90;4.70;;;16.90;99.90;;;;;;5136052;27;20043;-81
2022/08/11 00:47:39;;;;;;;5.28;4.78;;;16.90;99.90;;;;;;5136017;27;20072;-82
2022/08/11 00:50:20;;;;;;;8.10;5.20;;;16.80;99.90;;;;;;5154419;27;20046;-82
2022/08/11 00:53:03;;;;;;;6.95;5.00;;;16.80;99.90;;;;;;5136260;27;20062;-82
2022/08/11 00:55:41;;;;;;;4.70;3.70;;;16.70;99.90;;;;;;5154201;27;20050;-81
2022/08/11 00:58:38;;;;;;;8.23;3.97;;;16.70;99.90;;;;;;5153866;27;20402;-82
2022/08/11 01:01:16;;;;;;;6.20;3.92;;;16.70;99.90;;;;;;5135574;27;20187;-79
2022/08/11 01:04:12;;;;;;;6.45;5.10;;;16.70;99.90;;;;;;5118882;27;20047;-82
2022/08/11 01:06:57;;;;;;;8.88;5.53;;;16.70;99.90;;;;;;5135393;27;20042;-81
2022/08/11 01:09:34;;;;;;;5.40;4.60;;;16.60;99.90;;;;;;5135948;27;20186;-81
2022/08/11 01:12:27;;;;;;;9.55;5.38;;;16.60;99.90;;;;;;5154072;27;20133;-81
2022/08/11 01:15:26;;;;;;;7.57;5.00;;;16.50;99.90;;;;;;5135475;27;20076;-83
2022/08/11 01:18:10;;;;;;;7.30;5.05;;;16.50;99.90;;;;;;5154153;27;20043;-82
2022/08/11 01:21:08;;;;;;;7.38;5.38;;;16.50;99.90;;;;;;5155108;27;20042;-81
2022/08/11 01:24:01;;;;;;;7.47;5.10;;;16.50;99.90;;;;;;5158160;27;20342;-81
2022/08/11 01:27:05;;;;;;;12.70;4.82;;;16.40;99.90;;;;;;5135344;27;20510;-82
2022/08/11 01:29:50;;;;;;;7.35;5.47;;;16.40;99.90;;;;;;5036932;28;20064;-81
2022/08/11 01:32:53;;;;;;;6.22;5.50;;;16.40;99.90;;;;;;5021025;28;20063;-81
2022/08/11 01:35:51;;;;;;;5.88;5.25;;;16.30;99.90;;;;;;5037106;28;20179;-82
2022/08/11 01:39:07;;;;;;;8.45;6.30;;;16.30;99.90;;;;;;5036940;28;20180;-81
2022/08/11 01:45:02;;;;;;;7.80;5.75;;;16.20;99.90;;;;;;4997716;28;20487;-81
2022/08/11 01:47:51;;;;;;;10.82;6.55;;;16.20;99.90;;;;;;4997474;28;20097;-81
2022/08/11 01:50:47;;;;;;;7.80;6.25;;;16.10;99.90;;;;;;4997896;28;20407;-82
2022/08/11 01:53:43;;;;;;;8.27;5.88;;;16.10;99.90;;;;;;5013469;28;20050;-82
2022/08/11 01:56:47;;;;;;;8.95;5.93;;;16.10;99.90;;;;;;4997370;28;20060;-81
2022/08/11 01:59:34;;;;;;;6.88;5.93;;;16.10;99.90;;;;;;4996784;28;20058;-83
2022/08/11 02:02:47;;;;;;;8.02;6.07;;;15.90;99.90;;;;;;5013528;28;20491;-81
2022/08/11 02:05:46;;;;;;;8.27;4.78;;;16.10;99.90;;;;;;5028309;28;20067;-82
2022/08/11 02:08:36;;;;;;;8.63;6.50;;;16.10;99.90;;;;;;5073096;28;20136;-81
2022/08/11 02:13:55;;;;;;;7.35;5.07;;;16.10;99.90;;;;;;5138790;27;20054;-82
2022/08/11 02:16:47;;;;;;;9.05;7.00;;;16.00;99.90;;;;;;5139230;27;20103;-81
2022/08/11 02:25:23;;;;;;;8.07;7.28;;;15.90;99.90;;;;;;5156943;27;20047;-82
2022/08/11 02:27:56;;;;;;;10.85;6.72;;;16.00;99.90;;;;;;5157128;27;20050;-81
2022/08/11 02:30:28;;;;;;;9.23;6.63;;;16.00;99.90;;;;;;5156744;27;20041;-81
2022/08/11 02:33:21;;;;;;;9.60;6.90;;;15.90;99.90;;;;;;5156379;27;20091;-81
2022/08/11 02:35:53;;;;;;;8.65;5.47;;;15.90;99.90;;;;;;5138606;27;20038;-81
2022/08/11 02:38:44;;;;;;;9.18;6.82;;;15.90;99.90;;;;;;5156826;27;20230;-81
2022/08/11 02:44:43;;;;;;;9.52;7.20;;;15.80;99.90;;;;;;5138138;27;20078;-82
2022/08/11 02:51:05;;;;;;;8.57;6.18;;;15.80;99.90;;;;;;5137964;27;20047;-82
2022/08/11 02:53:50;;;;;;;9.57;7.65;;;15.70;99.90;;;;;;5137949;27;20045;-82
2022/08/11 02:56:27;;;;;;;9.25;7.60;;;15.70;99.90;;;;;;5156430;27;20049;-80
2022/08/11 03:02:05;;;;;;;8.00;6.88;;;15.60;99.90;;;;;;5155954;27;20043;-82
2022/08/11 03:05:02;;;;;;;8.18;6.93;;;15.60;99.90;;;;;;5121156;27;20451;-82
2022/08/11 03:07:48;;;;;;;8.77;6.68;;;15.60;99.90;;;;;;5137876;27;20398;-82
2022/08/11 03:10:31;;;;;;;10.50;6.60;;;15.50;99.90;;;;;;5120545;27;20488;-81
2022/08/11 03:16:44;;;;;;;7.68;6.63;;;15.50;99.90;;;;;;5156164;27;20054;-81
2022/08/11 03:19:28;;;;;;;10.82;7.43;;;15.50;99.90;;;;;;5137774;27;20046;-82
2022/08/11 03:22:18;;;;;;;9.48;7.57;;;15.50;99.90;;;;;;5137612;27;20085;-81
2022/08/11 03:25:05;;;;;;;10.48;7.38;;;15.50;99.90;;;;;;5155788;27;20082;-82
2022/08/11 03:27:52;;;;;;;10.07;7.93;;;15.50;99.90;;;;;;5155881;27;20039;-81
2022/08/11 03:30:33;;;;;;;10.63;7.20;;;15.50;99.90;;;;;;5137469;27;20448;-82
2022/08/11 03:36:14;;;;;;;9.60;7.90;;;15.40;99.90;;;;;;5137567;27;20336;-82
2022/08/11 03:39:02;;;;;;;11.18;8.43;;;15.40;99.90;;;;;;5034831;28;20057;-82
2022/08/11 03:42:09;;;;;;;12.27;8.93;;;15.30;99.90;;;;;;4995511;28;20058;-81
2022/08/11 03:44:52;;;;;;;9.98;7.47;;;15.30;99.90;;;;;;4936436;29;20066;-81
2022/08/11 03:47:50;;;;;;;13.15;9.40;;;15.20;99.90;;;;;;4953255;29;20433;-81
2022/08/11 03:50:44;;;;;;;10.57;9.02;;;15.20;99.90;;;;;;4914852;29;20107;-83
2022/08/11 03:53:51;;;;;;;12.38;9.23;;;15.20;99.90;;;;;;4899301;29;20505;-82
2022/08/11 03:56:57;;;;;;;15.10;10.40;;;15.20;99.90;;;;;;4840328;29;20144;-83
2022/08/11 03:59:52;;;;;;;11.60;9.38;;;15.10;99.90;;;;;;4839828;29;20066;-81
2022/08/11 04:03:00;;;;;;;12.75;10.20;;;15.10;99.90;;;;;;4840009;29;20444;-82
2022/08/11 04:05:50;;;;;;;11.20;9.13;;;15.10;99.90;;;;;;4839801;29;20085;-82
2022/08/11 04:08:38;;;;;;;12.63;10.00;;;15.00;99.90;;;;;;4840100;29;20580;-81
2022/08/11 04:11:43;;;;;;;14.43;10.68;;;15.00;99.90;;;;;;4839977;29;20053;-83
2022/08/11 04:18:38;;;;;;;17.25;10.68;;;15.00;99.90;;;;;;4868429;29;20099;-81
2022/08/11 04:21:34;;;;;;;11.82;10.15;;;15.00;99.90;;;;;;4934144;29;20051;-81
2022/08/11 04:24:37;;;;;;;13.30;9.20;;;15.00;99.90;;;;;;4936635;29;20135;-81
2022/08/11 04:27:24;;;;;;;13.95;10.00;;;15.00;99.90;;;;;;5011389;28;20554;-81
2022/08/11 04:30:04;;;;;;;12.65;9.60;;;15.10;99.90;;;;;;5049266;27;20051;-82
2022/08/11 04:32:55;;;;;;;11.55;10.30;;;15.10;99.90;;;;;;5118676;27;20506;-82
2022/08/11 04:35:21;;;;;;;;;;;15.00;99.90;;;;;;5136478;27;20087;-81
2022/08/11 04:38:01;;;;;;;13.18;9.77;;;15.10;99.90;;;;;;5136341;27;19977;-83
2022/08/11 04:41:04;;;;;;;13.27;10.35;;;15.10;99.90;;;;;;5136029;27;20111;-81
2022/08/11 04:44:14;;;;;;;15.95;10.23;;;15.10;99.90;;;;;;5136205;27;20047;-81
2022/08/11 04:46:59;;;;;;;13.45;10.13;;;15.10;99.90;;;;;;5135959;27;20143;-81
2022/08/11 05:01:41;;;;;;;13.18;10.00;;;15.20;99.90;;;;;;5135922;27;20093;-81
2022/08/11 05:07:44;;;;;;;12.85;10.38;;;15.30;99.90;;;;;;5135816;27;20054;-82
2022/08/11 05:10:47;;;;;;;14.43;10.82;;;15.40;99.90;;;;;;5118180;27;20399;-86
2022/08/11 05:36:36;;;;;;;13.82;8.38;;;16.10;99.90;;;;;;5100324;28;20503;-82
2022/08/11 05:58:43;;;;;;;12.77;7.40;;;16.80;99.90;;;;;;5114276;27;20047;-82
2022/08/11 06:01:19;;;;;;;12.90;7.80;;;16.90;99.90;;;;;;5131773;28;20511;-81
2022/08/11 06:06:39;;;;;;;10.57;6.97;;;17.00;99.90;;;;;;5115701;27;20082;-82
2022/08/11 06:09:06;;;;;;;12.80;6.63;;;17.20;99.90;;;;;;5136349;27;20040;-82
2022/08/11 06:11:40;;;;;;;9.45;7.40;;;17.30;99.90;;;;;;5118321;27;20043;-82
2022/08/11 06:14:09;;;;;;;9.38;5.40;;;17.50;99.90;;;;;;5118329;27;20047;-82
2022/08/11 06:16:36;;;;;;;9.60;6.70;;;17.50;99.90;;;;;;5118138;27;20055;-82
2022/08/11 06:19:03;;;;;;;7.88;5.75;;;17.60;99.90;;;;;;5136446;27;20039;-82
2022/08/11 06:21:33;;;;;;;10.15;5.80;;;17.80;99.90;;;;;;5136255;27;20421;-83
2022/08/11 06:24:00;;;;;;;8.30;6.68;;;17.90;99.90;;;;;;5136482;27;20038;-83
2022/08/11 06:26:26;;;;;;;9.73;6.50;;;18.00;99.90;;;;;;5136573;27;20038;-83
2022/08/11 06:28:58;;;;;;;10.02;6.30;;;18.10;99.90;;;;;;5136390;27;20150;-82
2022/08/11 06:31:25;;;;;;;14.13;6.78;;;18.20;99.90;;;;;;5136080;27;20123;-83
2022/08/11 06:34:11;;;;;;;10.00;6.55;;;18.40;99.90;;;;;;5136363;27;20047;-83
2022/08/11 06:36:56;;;;;;;10.18;6.25;;;18.60;99.90;;;;;;5118050;27;20101;-81
2022/08/11 06:39:46;;;;;;;9.80;5.90;;;18.70;99.90;;;;;;5136030;27;20480;-83
2022/08/11 06:42:35;;;;;;;9.27;5.10;;;18.80;99.90;;;;;;5136017;27;20054;-82
2022/08/11 06:45:24;;;;;;;7.30;5.43;;;18.90;99.90;;;;;;5100561;27;20192;-82
2022/08/11 06:47:51;;;;;;;11.15;5.47;;;19.00;99.90;;;;;;5099964;27;20055;-83
2022/08/11 06:53:09;;;;;;;9.05;5.07;;;19.30;99.90;;;;;;5135362;27;20457;-83
2022/08/11 07:01:15;;;;;;;7.60;4.40;;;19.70;99.90;;;;;;5093679;28;20051;-82
2022/08/11 07:03:57;;;;;;;7.57;4.50;;;19.90;99.90;;;;;;5094406;28;20075;-84
2022/08/11 07:06:40;;;;;;;7.32;4.07;;;20.00;99.90;;;;;;5076637;28;20485;-83
2022/08/11 07:15:41;;;;;;;5.47;4.38;;;20.50;99.90;;;;;;5071955;28;20048;-82
2022/08/11 07:29:56;;;;;;;8.33;3.50;;;21.20;99.90;;;;;;5071739;28;20052;-87
2022/08/11 07:32:30;;;;;;;6.15;3.50;;;21.40;99.90;;;;;;5071861;28;20091;-83
2022/08/11 07:35:05;;;;;;;6.15;2.53;;;21.60;99.90;;;;;;5055204;28;20057;-83
2022/08/11 07:37:33;;;;;;;5.55;2.75;;;21.80;99.90;;;;;;5071331;28;20056;-82
2022/08/11 07:39:59;;;;;;;4.55;2.70;;;22.00;99.90;;;;;;5054908;28;20049;-82
2022/08/11 07:42:35;;;;;;;3.10;2.55;;;22.20;99.90;;;;;;5071306;28;20557;-82
2022/08/11 07:53:20;;;;;;;4.30;2.08;;;23.10;99.90;;;;;;5092631;28;20052;-82
2022/08/11 07:55:49;;;;;;;7.70;1.95;;;23.40;99.90;;;;;;5093472;28;20100;-82
2022/08/11 08:20:23;;;;;;;3.15;1.48;;;29.10;67.90;;;;;;5093176;28;20144;-82
2022/08/11 08:23:00;;;;;;;5.57;1.30;;;29.80;65.60;;;;;;5091956;28;20059;-82
2022/08/11 08:25:27;;;;;;;6.13;1.70;;;30.40;65.00;;;;;;5092952;28;20048;-89
2022/08/11 08:27:55;;;;;;;4.15;1.65;;;30.80;60.60;;;;;;5092924;28;20036;-83
2022/08/11 08:33:07;;;;;;;4.78;1.45;;;31.70;56.70;;;;;;5074930;28;20048;-82
2022/08/11 08:35:35;;;;;;;2.45;1.52;;;32.20;56.30;;;;;;5075226;28;20044;-82
2022/08/11 08:38:01;;;;;;;3.17;1.30;;;32.60;55.50;;;;;;5101520;28;20169;-89
2022/08/11 08:40:27;;;;;;;3.50;1.23;;;32.90;53.60;;;;;;5113229;28;20039;-82
2022/08/11 08:42:57;;;;;;;3.50;1.20;;;33.20;52.50;;;;;;5113056;28;20043;-82
2022/08/11 08:45:24;;;;;;;2.83;1.50;;;33.50;51.40;;;;;;5094677;28;20040;-81
2022/08/11 08:48:04;;;;;;;2.10;1.25;;;34.00;50.70;;;;;;5091936;28;20040;-82
2022/08/11 08:53:30;;;;;;;7.97;1.30;;;34.90;49.70;;;;;;5093686;28;20481;-81
2022/08/11 08:55:59;;;;;;;4.82;1.30;;;35.30;47.60;;;;;;5094947;28;20480;-83
2022/08/11 08:58:25;;;;;;;3.58;1.20;;;35.40;45.70;;;;;;5094844;28;20052;-82
2022/08/11 09:00:53;;;;;;;3.22;1.05;;;35.60;46.20;;;;;;5112654;28;20048;-82
2022/08/11 09:03:19;;;;;;;1.77;0.88;;;35.90;44.70;;;;;;5112607;28;20050;-82
2022/08/11 09:05:47;;;;;;;3.78;1.10;;;36.20;43.90;;;;;;5112720;28;20475;-82
2022/08/11 09:08:18;;;;;;;5.95;1.13;;;36.60;43.90;;;;;;5112912;28;20078;-82
2022/08/11 09:11:48;;;;;;;1.38;1.00;;;36.90;42.40;;;;;;5091536;28;20054;-83
2022/08/11 09:13:34;;;;;;;3.03;1.20;;;37.30;41.30;;;;;;5076281;28;20094;-80
2022/08/11 09:16:01;;;;;;;6.88;1.02;;;37.60;41.50;;;;;;5090138;28;20032;-81
2022/08/11 09:18:27;;;;;;;5.40;1.00;;;37.60;41.10;;;;;;5090689;28;20101;-85
2022/08/11 09:20:53;;;;;;;5.57;1.00;;;37.80;40.00;;;;;;5111464;28;20486;-80
2022/08/11 09:28:49;;;;;;;1.48;0.85;;;38.30;38.60;;;;;;5077408;28;20054;-82
2022/08/11 09:31:16;;;;;;;5.80;1.10;;;38.40;37.70;;;;;;5112320;28;20071;-81
2022/08/11 09:33:43;;;;;;;4.38;1.17;;;38.50;37.00;;;;;;5111770;28;20122;-83
2022/08/11 09:41:47;;;;;;;4.45;1.20;;;38.90;36.10;;;;;;5075090;28;20169;-83
2022/08/11 09:46:58;;;;;;;3.38;1.50;;;38.90;35.60;;;;;;5079053;28;20087;-81
2022/08/11 09:49:24;;;;;;;5.13;1.65;;;39.30;35.30;;;;;;5114629;28;20067;-81
2022/08/11 09:51:51;;;;;;;3.47;1.58;;;39.30;35.20;;;;;;5114972;28;20032;-82
2022/08/11 09:54:18;;;;;;;2.95;1.77;;;39.40;34.70;;;;;;5114837;28;20055;-84
2022/08/11 09:59:29;;;;;;;2.15;1.40;;;39.90;34.40;;;;;;5123984;27;20047;-82
2022/08/11 10:02:01;;;;;;;4.35;1.60;;;39.80;34.50;;;;;;5135038;27;20051;-83
2022/08/11 10:04:46;;;;;;;3.08;1.40;;;39.90;34.90;;;;;;5135353;27;20054;-83
2022/08/11 10:07:18;;;;;;;4.43;1.60;;;40.00;35.00;;;;;;5134027;27;20035;-82
2022/08/11 10:09:43;;;;;;;3.22;1.60;;;39.90;34.70;;;;;;5153514;27;20031;-80
2022/08/11 10:12:13;;;;;;;7.65;1.58;;;39.90;35.40;;;;;;5155734;27;20087;-84
2022/08/11 10:17:32;;;;;;;3.78;1.42;;;40.20;34.40;;;;;;5154185;27;20058;-82
2022/08/11 10:20:02;;;;;;;4.78;1.50;;;40.50;34.50;;;;;;5155610;27;20039;-82
2022/08/11 10:27:59;;;;;;;4.45;1.40;;;41.20;34.20;;;;;;5135843;27;20050;-84
2022/08/11 10:36:00;;;;;;;5.13;1.40;;;41.50;34.00;;;;;;5153687;27;20038;-84
2022/08/11 10:38:27;;;;;;;2.00;1.17;;;41.50;33.70;;;;;;5137681;27;20118;-84
2022/08/11 10:43:40;;;;;;;3.25;1.20;;;41.70;32.90;;;;;;5137705;27;20043;-83
2022/08/11 10:48:56;;;;;;;2.47;1.30;;;41.90;32.20;;;;;;5135993;27;20053;-83
2022/08/11 10:59:42;;;;;;;8.20;1.50;;;42.10;32.00;;;;;;5133086;27;20062;-83
2022/08/11 11:02:14;;;;;;;;;;;42.20;32.20;;;;;;5155097;27;20043;-84
2022/08/11 11:04:57;;;;;;;2.63;1.40;;;42.60;32.90;;;;;;5136482;27;20268;-84
2022/08/11 11:07:34;;;;;;;3.55;1.33;;;42.70;32.30;;;;;;5152899;27;20129;-84
2022/08/11 11:10:08;;;;;;;3.75;1.30;;;42.90;31.00;;;;;;5151374;27;20045;-84
2022/08/11 11:18:21;;;;;;;3.08;1.27;;;42.70;32.60;;;;;;5137835;27;20054;-84
2022/08/11 11:21:05;;;;;;;3.38;1.52;;;42.90;31.50;;;;;;5136427;27;20047;-85
2022/08/11 11:23:46;;;;;;;3.95;1.30;;;43.10;30.80;;;;;;5152968;27;20039;-84
2022/08/11 11:26:22;;;;;;;2.63;1.30;;;42.90;30.40;;;;;;5152978;27;20168;-84
2022/08/11 11:28:58;;;;;;;4.53;1.30;;;42.90;31.10;;;;;;5152587;27;20054;-83
2022/08/11 11:31:59;;;;;;;7.90;1.30;;;43.10;30.10;;;;;;5151967;27;20042;-84
2022/08/11 11:34:56;;;;;;;2.13;1.00;;;43.00;30.40;;;;;;5053290;28;20044;-84
2022/08/11 11:37:22;;;;;;;2.00;1.20;;;42.90;30.60;;;;;;5021289;28;20049;-84
2022/08/11 11:39:49;;;;;;;5.18;1.25;;;42.70;30.70;;;;;;5019137;28;20062;-84
2022/08/11 11:42:17;;;;;;;4.45;1.30;;;42.70;30.60;;;;;;5036458;28;20582;-83
2022/08/11 11:44:44;;;;;;;2.88;1.27;;;42.70;30.80;;;;;;5023206;28;20045;-82
2022/08/11 11:47:14;;;;;;;1.75;1.40;;;42.60;30.80;;;;;;5024453;28;20040;-83
2022/08/11 11:49:42;;;;;;;1.90;1.20;;;42.70;30.30;;;;;;5031581;28;20057;-83
2022/08/11 11:52:16;;;;;;;4.72;1.30;;;42.70;30.30;;;;;;5023847;28;20084;-82
2022/08/11 11:54:44;;;;;;;4.50;1.20;;;42.80;30.50;;;;;;5020213;28;20112;-85
2022/08/11 12:02:42;;;;;;;3.80;1.25;;;42.30;30.60;;;;;;5014614;28;20056;-82
2022/08/11 12:05:09;;;;;;;7.60;1.20;;;41.90;30.50;;;;;;5038110;28;20095;-83
2022/08/11 12:10:21;;;;;;;5.65;1.48;;;41.70;30.90;;;;;;5093435;28;20385;-82
2022/08/11 12:15:31;;;;;;;3.78;1.40;;;41.30;30.70;;;;;;5135927;27;20194;-84
2022/08/11 12:17:59;;;;;;;4.90;1.10;;;40.80;31.60;;;;;;5135762;27;20061;-84
2022/08/11 12:20:25;;;;;;;2.35;1.30;;;40.40;31.40;;;;;;5136525;27;20199;-83
2022/08/11 12:28:21;;;;;;;4.63;1.27;;;39.30;33.40;;;;;;5145897;27;20054;-83
2022/08/11 12:30:51;;;;;;;2.83;1.20;;;38.90;33.30;;;;;;5127745;27;20132;-85
2022/08/11 12:33:19;;;;;;;4.57;1.05;;;38.80;33.60;;;;;;5131799;27;20059;-83
2022/08/11 12:35:47;;;;;;;3.67;1.17;;;38.50;34.50;;;;;;5150247;27;20407;-83
2022/08/11 12:38:15;;;;;;;3.80;1.27;;;37.90;34.30;;;;;;5118484;27;20436;-83
2022/08/11 12:46:22;;;;;;;5.13;1.10;;;35.90;36.90;;;;;;5135396;27;20106;-83
2022/08/11 12:51:59;;;;;;;5.20;1.30;;;34.90;36.20;;;;;;5135580;27;20463;-82
2022/08/11 12:54:30;;;;;;;3.55;1.05;;;34.60;36.60;;;;;;5153976;27;20097;-83
2022/08/11 13:05:19;;;;;;;4.50;1.10;;;34.20;37.90;;;;;;5111560;28;20083;-84
2022/08/11 13:07:46;;;;;;;2.08;1.00;;;34.00;38.10;;;;;;5112776;28;20138;-82
2022/08/11 13:12:46;;;;;;;3.17;1.20;;;33.70;38.40;;;;;;5110919;28;20368;-83
2022/08/11 13:13:06;;;;;;;2.65;1.20;;;33.50;38.80;;;;;;5112518;28;20059;-83
2022/08/11 13:15:32;;;;;;;2.88;0.90;;;33.30;39.30;;;;;;5114021;28;20043;-84
2022/08/11 13:17:59;;;;;;;2.72;1.15;;;33.10;40.20;;;;;;5115565;28;20050;-83
2022/08/11 13:20:26;;;;;;;2.33;1.10;;;33.00;39.20;;;;;;5116864;28;20412;-82
2022/08/11 13:22:54;;;;;;;4.22;1.30;;;32.90;39.80;;;;;;5122710;27;20137;-83
2022/08/11 13:25:22;;;;;;;3.53;1.02;;;32.90;39.20;;;;;;5137309;27;20053;-82
2022/08/11 13:27:54;;;;;;;4.80;1.55;;;32.70;39.50;;;;;;5137287;27;20124;-83
2022/08/11 13:33:09;;;;;;;2.28;0.90;;;32.40;39.10;;;;;;5118966;27;20054;-82
2022/08/11 13:35:37;;;;;;;4.80;1.17;;;32.30;41.40;;;;;;5118911;27;20062;-83
2022/08/11 13:38:04;;;;;;;3.17;1.15;;;32.30;40.60;;;;;;5137161;27;20517;-81
2022/08/11 13:40:31;;;;;;;5.00;1.10;;;32.30;41.30;;;;;;5136929;27;20061;-83
2022/08/11 13:42:58;;;;;;;4.35;1.17;;;32.30;41.30;;;;;;5118974;27;20058;-81
2022/08/11 13:45:25;;;;;;;3.60;1.13;;;32.20;41.80;;;;;;5137073;27;20050;-83
2022/08/11 13:48:02;;;;;;;5.22;1.08;;;32.20;42.00;;;;;;5108955;27;20047;-84
2022/08/11 13:53:15;;;;;;;2.65;1.23;;;32.30;40.90;;;;;;5133261;27;20094;-85
2022/08/11 13:55:43;;;;;;;4.88;0.93;;;32.30;42.40;;;;;;5135616;27;20404;-83
2022/08/11 13:58:12;;;;;;;3.08;1.00;;;32.40;43.40;;;;;;5134982;27;20046;-83
2022/08/11 14:00:40;;;;;;;3.42;0.90;;;32.50;42.40;;;;;;5132719;27;20050;-82
2022/08/11 14:03:10;;;;;;;1.83;0.85;;;32.50;41.50;;;;;;5132276;27;20051;-83
2022/08/11 14:05:44;;;;;;;3.40;1.10;;;32.40;41.40;;;;;;5132286;27;20043;-84
2022/08/11 14:08:17;;;;;;;2.42;0.95;;;32.30;41.00;;;;;;5136128;27;20652;-84
2022/08/11 14:10:46;;;;;;;5.32;1.10;;;32.20;41.10;;;;;;5136679;27;20043;-83
2022/08/11 14:16:09;;;;;;;4.15;0.90;;;32.00;39.90;;;;;;5118312;27;20062;-83
2022/08/11 14:18:41;;;;;;;1.83;0.80;;;32.00;40.50;;;;;;5136153;27;20487;-83
2022/08/11 14:23:58;;;;;;;2.92;0.85;;;31.90;39.70;;;;;;5117908;27;20047;-81
2022/08/11 14:26:27;;;;;;;2.50;1.17;;;32.00;39.70;;;;;;5136112;27;20046;-83
2022/08/11 14:29:15;;;;;;;2.05;1.00;;;32.20;41.80;;;;;;5112731;27;20066;-84
2022/08/11 14:31:47;;;;;;;1.00;0.80;;;32.40;41.70;;;;;;5083933;28;20059;-84
2022/08/11 14:34:13;;;;;;;2.60;0.90;;;32.50;41.50;;;;;;5116144;27;20046;-83
2022/08/11 14:36:43;;;;;;;2.15;0.90;;;32.60;41.40;;;;;;5105811;27;20202;-82
2022/08/11 14:39:11;;;;;;;3.47;0.93;;;32.80;41.60;;;;;;5120208;27;20031;-81
2022/08/11 14:47:14;;;;;;;2.22;1.08;;;33.10;39.40;;;;;;5096606;28;20530;-82
2022/08/11 14:49:41;;;;;;;4.60;1.00;;;33.30;39.60;;;;;;5114904;28;20040;-82
2022/08/11 14:52:14;;;;;;;7.47;1.13;;;33.40;39.40;;;;;;5114977;28;20052;-83
2022/08/11 14:57:27;;;;;;;4.25;1.30;;;33.50;39.30;;;;;;5114997;28;20048;-82
2022/08/11 14:59:57;;;;;;;2.72;1.10;;;33.80;38.40;;;;;;5124967;27;20048;-82
2022/08/11 15:05:07;;;;;;;3.55;1.27;;;34.50;38.70;;;;;;5117100;27;20458;-82
2022/08/11 15:07:35;;;;;;;1.00;0.77;;;34.70;37.80;;;;;;5133202;27;20118;-82
2022/08/11 15:10:05;;;;;;;5.10;1.10;;;35.00;37.10;;;;;;5087589;27;20055;-82
2022/08/11 15:12:31;;;;;;;;;;;35.40;36.20;;;;;;5135373;27;20122;-82
2022/08/11 15:17:44;;;;;;;3.83;1.20;;;36.10;35.70;;;;;;5156046;27;20146;-82
2022/08/11 15:25:54;;;;;;;2.38;1.52;;;36.80;34.70;;;;;;5099988;28;20060;-81
2022/08/11 15:48:32;;;;;;;3.42;1.00;;;37.20;34.70;;;;;;5121021;27;20087;-83
2022/08/11 15:51:11;;;;;;;2.10;1.05;;;37.40;34.20;;;;;;5104753;27;20055;-83
2022/08/11 15:53:48;;;;;;;4.40;1.20;;;37.40;35.00;;;;;;5095132;28;20039;-83
2022/08/11 15:56:15;;;;;;;1.88;0.90;;;37.40;35.30;;;;;;5100247;27;20518;-79
2022/08/11 16:04:25;;;;;;;4.95;1.40;;;37.20;36.70;;;;;;5113473;27;20062;-84
2022/08/11 16:07:10;;;;;;;2.50;1.00;;;37.10;36.70;;;;;;5103711;27;20168;-82
2022/08/11 16:09:54;;;;;;;2.40;0.88;;;37.10;35.80;;;;;;5095445;27;20301;-82
2022/08/11 16:12:25;;;;;;;2.83;1.02;;;37.10;36.70;;;;;;5120991;27;20063;-82
2022/08/11 16:17:51;;;;;;;2.35;0.98;;;37.00;36.40;;;;;;5098944;28;20121;-85
2022/08/11 16:20:20;;;;;;;2.45;0.98;;;37.00;35.70;;;;;;5113923;27;20126;-82
2022/08/11 16:22:48;;;;;;;1.67;1.27;;;37.00;35.20;;;;;;5117195;27;20515;-82
2022/08/11 16:25:18;;;;;;;2.58;0.90;;;37.10;34.90;;;;;;5123309;27;20492;-82
2022/08/11 16:27:50;;;;;;;2.70;1.08;;;37.20;34.40;;;;;;5101748;27;20054;-83
2022/08/11 16:30:16;;;;;;;1.65;1.10;;;37.30;35.10;;;;;;5111906;27;20114;-85
2022/08/11 16:32:51;;;;;;;3.50;0.95;;;37.50;34.40;;;;;;5129792;27;20043;-82
2022/08/11 16:40:56;;;;;;;1.98;1.08;;;37.60;33.80;;;;;;5093755;28;20482;-85
2022/08/11 16:48:58;;;;;;;1.85;1.08;;;38.00;33.70;;;;;;5112474;28;20055;-83
2022/08/11 16:51:24;;;;;;;1.25;0.80;;;37.90;34.20;;;;;;5112264;28;20135;-84
2022/08/11 16:53:50;;;;;;;3.40;1.20;;;38.00;33.90;;;;;;5112594;28;20126;-83
2022/08/11 16:56:20;;;;;;;2.47;1.00;;;37.90;33.90;;;;;;5095048;28;20108;-81
2022/08/11 17:01:38;;;;;;;1.75;0.90;;;37.60;34.10;;;;;;5112756;28;20048;-80
2022/08/11 17:13:07;;;;;;;3.35;1.10;;;37.10;35.00;;;;;;5094296;28;20043;-79
2022/08/11 17:13:08;;;;;;;4.43;1.13;;;36.80;35.50;;;;;;5094266;28;20047;-82
2022/08/11 17:18:46;;;;;;;2.35;1.13;;;36.60;35.80;;;;;;5094319;28;20124;-82
2022/08/11 17:21:14;;;;;;;3.60;1.10;;;36.40;35.50;;;;;;5112321;28;20039;-84
2022/08/11 17:23:48;;;;;;;2.55;1.10;;;36.20;36.10;;;;;;5112682;28;20419;-84
2022/08/11 17:26:25;;;;;;;2.92;1.23;;;36.10;36.10;;;;;;5112644;28;20043;-83
2022/08/11 17:28:58;;;;;;;2.25;1.17;;;36.00;36.30;;;;;;5112481;28;20384;-83
2022/08/11 17:36:58;;;;;;;4.10;1.08;;;35.60;37.60;;;;;;5094045;28;20058;-83
2022/08/11 17:39:28;;;;;;;5.13;1.30;;;35.40;38.20;;;;;;5093995;28;20055;-84
2022/08/11 17:50:11;;;;;;;2.65;1.10;;;34.40;39.80;;;;;;5113950;28;20518;-79
2022/08/11 18:00:56;;;;;;;2.42;1.17;;;31.10;45.00;;;;;;5115303;28;20104;-81
2022/08/11 18:03:31;;;;;;;2.40;1.48;;;30.50;46.00;;;;;;5114565;28;20058;-80
2022/08/11 18:06:01;;;;;;;6.43;1.30;;;30.00;47.30;;;;;;5097301;28;20059;-77
